createdAt,value
2022-11-06T00:01:57.167Z,14.50
2022-11-06T00:05:19.358Z,14.50
2022-11-06T00:08:36.473Z,14.50
2022-11-06T00:11:40.637Z,14.40
2022-11-06T00:14:43.541Z,14.40
2022-11-06T00:17:50.557Z,14.40
2022-11-06T00:20:52.677Z,14.40
2022-11-06T00:23:56.511Z,14.40
2022-11-06T00:26:59.041Z,14.40
2022-11-06T00:30:01.087Z,14.40
2022-11-06T00:33:04.343Z,14.40
2022-11-06T00:36:09.214Z,14.40
2022-11-06T00:39:12.033Z,14.40
2022-11-06T00:42:14.455Z,14.40
2022-11-06T00:45:17.404Z,14.40
2022-11-06T00:48:20.897Z,14.40
2022-11-06T00:51:32.232Z,14.40
2022-11-06T00:54:34.378Z,14.40
2022-11-06T00:57:36.515Z,14.40
2022-11-06T01:00:38.678Z,14.40
2022-11-06T01:03:42.731Z,14.40
2022-11-06T01:06:49.893Z,14.30
2022-11-06T01:09:51.931Z,14.40
2022-11-06T01:12:55.141Z,14.30
2022-11-06T01:15:57.300Z,14.30
2022-11-06T01:18:59.922Z,14.30
2022-11-06T01:22:02.279Z,14.30
2022-11-06T01:25:05.890Z,14.30
2022-11-06T01:28:08.078Z,14.30
2022-11-06T01:31:15.753Z,14.30
2022-11-06T01:34:18.780Z,14.30
2022-11-06T01:37:26.545Z,14.30
2022-11-06T01:40:28.644Z,14.30
2022-11-06T01:43:59.611Z,14.30
2022-11-06T01:47:07.573Z,14.30
2022-11-06T01:50:12.472Z,14.30
2022-11-06T01:53:17.971Z,14.30
2022-11-06T01:56:21.767Z,14.30
2022-11-06T01:59:29.189Z,14.30
2022-11-06T02:02:31.814Z,14.30
2022-11-06T02:05:36.781Z,14.20
2022-11-06T02:08:38.964Z,14.30
2022-11-06T02:11:43.416Z,14.20
2022-11-06T02:15:02.069Z,14.30
2022-11-06T02:18:48.661Z,14.30
2022-11-06T02:22:10.320Z,14.30
2022-11-06T02:25:49.557Z,14.30
2022-11-06T02:29:07.245Z,14.30
2022-11-06T02:32:14.106Z,14.20
2022-11-06T02:35:34.539Z,14.30
2022-11-06T02:38:43.874Z,14.30
2022-11-06T02:41:47.941Z,14.20
2022-11-06T02:44:52.153Z,14.20
2022-11-06T02:47:56.735Z,14.20
2022-11-06T02:51:11.301Z,14.20
2022-11-06T02:54:15.805Z,14.20
2022-11-06T02:57:19.873Z,14.20
2022-11-06T03:00:28.873Z,14.20
2022-11-06T03:03:34.980Z,14.20
2022-11-06T03:06:42.272Z,14.20
2022-11-06T03:09:45.339Z,14.20
2022-11-06T03:13:17.774Z,14.20
2022-11-06T03:16:51.490Z,14.10
2022-11-06T03:20:04.119Z,14.10
2022-11-06T03:23:22.845Z,14.20
2022-11-06T03:26:37.401Z,14.10
2022-11-06T03:30:06.618Z,14.10
2022-11-06T03:33:32.170Z,14.10
2022-11-06T03:36:44.209Z,14.00
2022-11-06T03:39:52.126Z,14.10
2022-11-06T03:42:58.064Z,14.00
2022-11-06T03:46:02.741Z,14.10
2022-11-06T03:49:13.969Z,14.10
2022-11-06T03:52:38.259Z,14.10
2022-11-06T03:55:52.229Z,14.10
2022-11-06T03:58:56.006Z,14.10
2022-11-06T04:02:00.663Z,14.10
2022-11-06T04:05:19.595Z,14.10
2022-11-06T04:08:43.646Z,14.10
2022-11-06T04:12:06.283Z,14.10
2022-11-06T04:15:13.306Z,14.10
2022-11-06T04:18:20.532Z,14.10
2022-11-06T04:21:41.121Z,14.20
2022-11-06T04:25:20.193Z,14.10
2022-11-06T04:28:41.160Z,14.20
2022-11-06T04:32:10.926Z,14.10
2022-11-06T04:35:24.290Z,14.10
2022-11-06T04:38:55.987Z,14.10
2022-11-06T04:42:37.500Z,14.10
2022-11-06T04:45:42.959Z,14.10
2022-11-06T04:48:47.089Z,14.10
2022-11-06T04:51:50.018Z,14.10
2022-11-06T04:54:54.887Z,14.20
2022-11-06T04:57:57.898Z,14.20
2022-11-06T05:01:00.259Z,14.20
2022-11-06T05:04:02.806Z,14.20
2022-11-06T05:07:04.922Z,14.20
2022-11-06T05:10:07.411Z,14.10
2022-11-06T05:13:10.136Z,14.10
2022-11-06T05:16:17.271Z,14.10
2022-11-06T05:19:19.943Z,14.10
2022-11-06T05:22:40.398Z,14.10
2022-11-06T05:25:43.207Z,14.10
2022-11-06T05:28:45.296Z,14.10
2022-11-06T05:31:47.705Z,14.10
2022-11-06T05:34:49.780Z,14.10
2022-11-06T05:37:58.237Z,14.00
2022-11-06T05:41:02.297Z,14.00
2022-11-06T05:44:04.407Z,14.10
2022-11-06T05:47:06.450Z,14.00
2022-11-06T05:50:09.611Z,14.10
2022-11-06T05:53:11.991Z,14.10
2022-11-06T05:56:14.267Z,14.10
2022-11-06T05:59:16.464Z,14.00
2022-11-06T06:02:19.119Z,14.00
2022-11-06T06:05:21.356Z,14.00
2022-11-06T06:08:24.178Z,14.00
2022-11-06T06:11:26.308Z,14.00
2022-11-06T06:14:28.591Z,14.00
2022-11-06T06:17:30.713Z,13.90
2022-11-06T06:20:34.342Z,13.90
2022-11-06T06:23:36.735Z,13.90
2022-11-06T06:26:39.065Z,13.90
2022-11-06T06:29:41.315Z,13.90
2022-11-06T06:32:43.776Z,13.90
2022-11-06T06:35:45.889Z,13.90
2022-11-06T06:38:48.016Z,13.90
2022-11-06T06:41:50.464Z,13.90
2022-11-06T06:44:52.481Z,13.80
2022-11-06T06:47:54.583Z,13.80
2022-11-06T06:51:00.902Z,13.80
2022-11-06T06:54:03.036Z,13.80
2022-11-06T06:57:05.818Z,13.80
2022-11-06T07:00:10.695Z,13.70
2022-11-06T07:03:13.417Z,13.70
2022-11-06T07:06:17.797Z,13.80
2022-11-06T07:09:19.984Z,13.70
2022-11-06T07:12:22.494Z,13.80
2022-11-06T07:15:24.605Z,13.70
2022-11-06T07:18:26.748Z,13.80
2022-11-06T07:21:31.005Z,13.80
2022-11-06T07:24:33.557Z,13.90
2022-11-06T07:27:37.653Z,14.00
2022-11-06T07:30:39.837Z,14.40
2022-11-06T07:33:41.989Z,15.10
2022-11-06T07:36:45.022Z,15.90
2022-11-06T07:39:52.083Z,16.20
2022-11-06T07:42:55.272Z,16.60
2022-11-06T07:46:07.170Z,17.30
2022-11-06T07:49:12.508Z,18.00
2022-11-06T07:52:15.610Z,18.10
2022-11-06T07:55:17.773Z,18.00
2022-11-06T07:58:22.138Z,17.70
2022-11-06T08:01:24.636Z,17.30
2022-11-06T08:04:27.133Z,16.80
2022-11-06T08:07:29.629Z,16.60
2022-11-06T08:10:32.026Z,16.50
2022-11-06T08:13:35.153Z,16.40
2022-11-06T08:16:37.474Z,16.40
2022-11-06T08:19:42.252Z,16.50
2022-11-06T08:22:44.561Z,17.20
2022-11-06T08:25:46.745Z,18.50
2022-11-06T08:28:48.949Z,20.10
2022-11-06T08:31:51.173Z,21.80
2022-11-06T08:34:53.252Z,23.10
2022-11-06T08:37:55.445Z,24.40
2022-11-06T08:40:57.826Z,25.50
2022-11-06T08:44:00.138Z,26.40
2022-11-06T08:47:02.260Z,27.10
2022-11-06T08:50:04.751Z,27.20
2022-11-06T08:53:08.017Z,27.40
2022-11-06T08:56:10.377Z,27.30
2022-11-06T08:59:12.430Z,28.10
2022-11-06T09:02:15.650Z,28.70
2022-11-06T09:05:18.710Z,29.20
2022-11-06T09:08:20.879Z,29.20
2022-11-06T09:11:23.490Z,29.30
2022-11-06T09:14:28.433Z,30.00
2022-11-06T09:17:30.491Z,29.90
2022-11-06T09:20:32.576Z,30.20
2022-11-06T09:23:37.816Z,30.40
2022-11-06T09:26:40.964Z,29.80
2022-11-06T09:29:44.649Z,30.40
2022-11-06T09:32:48.662Z,30.20
2022-11-06T09:35:50.908Z,30.30
2022-11-06T09:38:53.815Z,30.40
2022-11-06T09:42:01.461Z,30.10
2022-11-06T09:45:13.622Z,30.60
2022-11-06T09:48:20.417Z,30.90
2022-11-06T09:51:46.419Z,30.80
2022-11-06T09:55:02.995Z,30.90
2022-11-06T09:58:26.965Z,31.00
2022-11-06T10:01:56.609Z,31.10
2022-11-06T10:05:08.912Z,32.20
2022-11-06T10:08:19.083Z,31.80
2022-11-06T10:11:42.934Z,32.10
2022-11-06T10:14:58.185Z,31.80
2022-11-06T10:18:42.071Z,32.30
2022-11-06T10:22:19.938Z,31.90
2022-11-06T10:25:30.475Z,31.60
2022-11-06T10:28:57.277Z,31.40
2022-11-06T10:32:13.228Z,31.40
2022-11-06T10:35:31.552Z,30.80
2022-11-06T10:38:40.552Z,31.10
2022-11-06T10:41:46.581Z,30.60
2022-11-06T10:44:53.364Z,29.30
2022-11-06T10:48:17.389Z,28.80
2022-11-06T10:51:48.679Z,28.30
2022-11-06T10:55:26.177Z,27.90
2022-11-06T10:58:32.259Z,27.60
2022-11-06T11:01:34.891Z,27.70
2022-11-06T11:04:37.052Z,27.80
2022-11-06T11:07:39.566Z,27.60
2022-11-06T11:10:51.985Z,27.90
2022-11-06T11:14:05.759Z,28.00
2022-11-06T11:17:09.117Z,28.20
2022-11-06T11:20:33.502Z,28.10
2022-11-06T11:23:35.713Z,28.40
2022-11-06T11:26:48.553Z,27.50
2022-11-06T11:29:50.713Z,27.80
2022-11-06T11:32:53.856Z,27.80
2022-11-06T11:35:56.143Z,27.60
2022-11-06T11:38:58.185Z,27.20
2022-11-06T11:42:21.722Z,27.40
2022-11-06T11:45:24.021Z,27.20
2022-11-06T11:48:26.262Z,27.20
2022-11-06T11:51:43.625Z,26.80
2022-11-06T11:54:54.200Z,26.70
2022-11-06T11:57:59.460Z,26.00
2022-11-06T12:01:07.608Z,25.80
2022-11-06T12:04:40.545Z,25.70
2022-11-06T12:07:47.875Z,25.60
2022-11-06T12:10:50.553Z,25.10
2022-11-06T12:14:18.655Z,25.00
2022-11-06T12:17:23.934Z,24.50
2022-11-06T12:20:35.448Z,24.40
2022-11-06T12:23:47.511Z,24.40
2022-11-06T12:27:01.755Z,24.60
2022-11-06T12:30:13.377Z,24.50
2022-11-06T12:33:59.615Z,24.50
2022-11-06T12:37:10.284Z,24.60
2022-11-06T12:40:25.925Z,24.60
2022-11-06T12:43:48.652Z,24.60
2022-11-06T12:47:26.297Z,24.50
2022-11-06T12:50:41.961Z,24.40
2022-11-06T12:53:50.364Z,24.20
2022-11-06T12:57:09.677Z,24.20
2022-11-06T13:00:18.095Z,24.20
2022-11-06T13:03:58.306Z,24.10
2022-11-06T13:07:09.305Z,24.20
2022-11-06T13:10:34.325Z,24.10
2022-11-06T13:13:45.765Z,24.00
2022-11-06T13:17:11.330Z,24.00
2022-11-06T13:20:31.827Z,24.20
2022-11-06T13:23:37.944Z,24.10
2022-11-06T13:26:49.750Z,24.10
2022-11-06T13:29:59.297Z,24.20
2022-11-06T13:33:19.880Z,24.00
2022-11-06T13:36:22.964Z,23.80
2022-11-06T13:39:33.029Z,23.80
2022-11-06T13:42:44.741Z,23.70
2022-11-06T13:46:01.651Z,23.60
2022-11-06T13:49:23.767Z,23.50
2022-11-06T13:52:38.430Z,23.50
2022-11-06T13:56:04.493Z,23.60
2022-11-06T13:59:23.815Z,23.40
2022-11-06T14:02:48.509Z,23.40
2022-11-06T14:06:01.569Z,23.40
2022-11-06T14:09:25.472Z,23.30
2022-11-06T14:12:28.478Z,23.30
2022-11-06T14:15:39.594Z,23.20
2022-11-06T14:18:42.279Z,23.00
2022-11-06T14:21:48.936Z,22.90
2022-11-06T14:24:51.058Z,22.50
2022-11-06T14:27:53.009Z,22.40
2022-11-06T14:31:12.646Z,22.40
2022-11-06T14:34:34.899Z,22.20
2022-11-06T14:37:43.151Z,22.30
2022-11-06T14:40:45.787Z,22.30
2022-11-06T14:43:51.356Z,22.40
2022-11-06T14:46:59.849Z,22.30
2022-11-06T14:50:41.208Z,22.20
2022-11-06T14:53:54.183Z,22.30
2022-11-06T14:56:57.122Z,22.30
2022-11-06T14:59:59.590Z,22.20
2022-11-06T15:03:04.807Z,22.20
2022-11-06T15:06:17.295Z,22.20
2022-11-06T15:09:26.009Z,22.20
2022-11-06T15:13:05.318Z,22.20
2022-11-06T15:16:12.544Z,22.20
2022-11-06T15:19:23.953Z,22.20
2022-11-06T15:22:40.029Z,22.30
2022-11-06T15:26:03.217Z,22.20
2022-11-06T15:29:24.206Z,22.10
2022-11-06T15:32:30.771Z,22.00
2022-11-06T15:35:35.948Z,22.00
2022-11-06T15:38:42.896Z,21.90
2022-11-06T15:41:45.235Z,22.00
2022-11-06T15:44:48.545Z,22.00
2022-11-06T15:47:58.313Z,22.00
2022-11-06T15:51:00.839Z,21.90
2022-11-06T15:54:03.911Z,21.80
2022-11-06T15:57:27.899Z,21.70
2022-11-06T16:00:30.503Z,21.70
2022-11-06T16:03:49.693Z,21.60
2022-11-06T16:06:56.904Z,21.40
2022-11-06T16:09:59.419Z,21.30
2022-11-06T16:13:04.614Z,21.30
2022-11-06T16:16:39.096Z,21.30
2022-11-06T16:19:45.595Z,21.30
2022-11-06T16:22:47.845Z,21.30
2022-11-06T16:25:56.357Z,21.40
2022-11-06T16:29:00.124Z,21.30
2022-11-06T16:32:24.646Z,21.30
2022-11-06T16:35:35.446Z,21.20
2022-11-06T16:38:42.000Z,21.10
2022-11-06T16:42:03.669Z,21.10
2022-11-06T16:45:15.883Z,21.10
2022-11-06T16:48:25.182Z,21.00
2022-11-06T16:51:32.798Z,20.90
2022-11-06T16:54:35.221Z,20.80
2022-11-06T16:57:56.463Z,20.70
2022-11-06T17:01:04.950Z,20.60
2022-11-06T17:04:26.434Z,20.40
2022-11-06T17:07:28.772Z,20.30
2022-11-06T17:10:45.585Z,20.30
2022-11-06T17:13:49.646Z,20.10
2022-11-06T17:16:56.381Z,20.10
2022-11-06T17:19:58.380Z,20.00
2022-11-06T17:23:00.505Z,19.90
2022-11-06T17:26:18.977Z,19.80
2022-11-06T17:29:22.372Z,19.70
2022-11-06T17:32:24.744Z,19.60
2022-11-06T17:35:27.014Z,19.50
2022-11-06T17:38:29.116Z,19.40
2022-11-06T17:41:31.343Z,19.40
2022-11-06T17:44:36.382Z,19.30
2022-11-06T17:47:38.459Z,19.30
2022-11-06T17:50:59.389Z,19.20
2022-11-06T17:54:01.573Z,19.10
2022-11-06T17:57:06.067Z,19.00
2022-11-06T18:00:10.181Z,19.00
2022-11-06T18:03:20.605Z,18.90
2022-11-06T18:06:23.319Z,18.90
2022-11-06T18:09:25.971Z,18.90
2022-11-06T18:12:28.990Z,18.90
2022-11-06T18:15:34.903Z,18.80
2022-11-06T18:18:37.009Z,18.80
2022-11-06T18:21:39.292Z,18.80
2022-11-06T18:24:41.443Z,18.80
2022-11-06T18:27:43.571Z,18.80
2022-11-06T18:30:45.687Z,18.70
2022-11-06T18:33:48.124Z,18.70
2022-11-06T18:36:50.738Z,18.70
2022-11-06T18:39:53.064Z,18.60
2022-11-06T18:42:55.920Z,18.60
2022-11-06T18:45:58.111Z,18.50
2022-11-06T18:49:01.457Z,18.50
2022-11-06T18:52:03.564Z,18.50
2022-11-06T18:55:06.442Z,18.50
2022-11-06T18:58:08.745Z,18.50
2022-11-06T19:01:13.746Z,18.40
2022-11-06T19:04:16.378Z,18.40
2022-11-06T19:07:18.612Z,18.40
2022-11-06T19:10:20.990Z,18.40
2022-11-06T19:13:23.287Z,18.40
2022-11-06T19:16:25.400Z,18.40
2022-11-06T19:19:27.516Z,18.40
2022-11-06T19:22:31.132Z,18.30
2022-11-06T19:25:33.474Z,18.30
2022-11-06T19:28:36.073Z,18.30
2022-11-06T19:31:39.431Z,18.30
2022-11-06T19:34:41.912Z,18.30
2022-11-06T19:37:45.267Z,18.30
2022-11-06T19:41:01.759Z,18.30
2022-11-06T19:44:06.344Z,18.30
2022-11-06T19:47:11.227Z,18.30
2022-11-06T19:50:13.776Z,18.30
2022-11-06T19:53:22.407Z,18.30
2022-11-06T19:56:25.770Z,18.30
2022-11-06T19:59:28.182Z,18.30
2022-11-06T20:02:30.651Z,18.20
2022-11-06T20:05:33.172Z,18.30
2022-11-06T20:08:37.071Z,18.20
2022-11-06T20:11:39.691Z,18.30
2022-11-06T20:14:43.189Z,18.30
2022-11-06T20:17:45.591Z,18.30
2022-11-06T20:20:51.370Z,18.30
2022-11-06T20:23:54.104Z,18.30
2022-11-06T20:26:56.431Z,18.30
2022-11-06T20:30:01.529Z,18.30
2022-11-06T20:33:03.757Z,18.30
2022-11-06T20:36:11.645Z,18.40
2022-11-06T20:39:16.844Z,18.40
2022-11-06T20:42:20.194Z,18.30
2022-11-06T20:45:22.320Z,18.30
2022-11-06T20:48:25.333Z,18.30
2022-11-06T20:51:42.986Z,18.20
2022-11-06T20:54:52.327Z,18.20
2022-11-06T20:57:54.464Z,18.10
2022-11-06T21:01:50.962Z,18.10
2022-11-06T21:04:51.073Z,18.10
2022-11-06T21:07:53.229Z,18.10
2022-11-06T21:11:14.094Z,18.10
2022-11-06T21:14:16.302Z,18.10
2022-11-06T21:17:19.317Z,18.00
2022-11-06T21:20:23.019Z,18.00
2022-11-06T21:23:28.328Z,17.90
2022-11-06T21:26:34.166Z,17.90
2022-11-06T21:29:36.641Z,17.90
2022-11-06T21:32:38.960Z,17.90
2022-11-06T21:35:41.669Z,17.80
2022-11-06T21:38:44.952Z,17.90
2022-11-06T21:41:48.713Z,17.80
2022-11-06T21:44:54.296Z,17.90
2022-11-06T21:47:59.869Z,17.90
2022-11-06T21:51:11.507Z,17.80
2022-11-06T21:54:32.061Z,17.80
2022-11-06T21:57:34.432Z,17.80
2022-11-06T22:00:40.118Z,17.80
2022-11-06T22:03:43.042Z,17.70
2022-11-06T22:06:46.432Z,17.70
2022-11-06T22:09:49.126Z,17.70
2022-11-06T22:12:51.466Z,17.70
2022-11-06T22:15:53.676Z,17.70
2022-11-06T22:18:56.740Z,17.70
2022-11-06T22:21:59.410Z,17.70
2022-11-06T22:25:01.825Z,17.70
2022-11-06T22:28:04.253Z,17.70
2022-11-06T22:31:07.406Z,17.70
2022-11-06T22:34:11.788Z,17.70
2022-11-06T22:37:14.238Z,17.60
2022-11-06T22:40:16.387Z,17.60
2022-11-06T22:43:18.772Z,17.70
2022-11-06T22:46:23.747Z,17.60
2022-11-06T22:49:29.024Z,17.60
2022-11-06T22:52:34.694Z,17.60
2022-11-06T22:55:42.635Z,17.60
2022-11-06T23:02:35.598Z,17.60
2022-11-06T23:05:43.021Z,17.70
2022-11-06T23:08:47.067Z,17.60
2022-11-06T23:11:51.719Z,17.70
2022-11-06T23:14:54.047Z,17.70
2022-11-06T23:17:57.768Z,17.60
2022-11-06T23:21:00.310Z,17.60
2022-11-06T23:24:03.314Z,17.60
2022-11-06T23:27:07.312Z,17.50
2022-11-06T23:30:10.990Z,17.50
2022-11-06T23:33:13.543Z,17.50
2022-11-06T23:36:17.405Z,17.50
2022-11-06T23:39:20.053Z,17.60
2022-11-06T23:42:22.955Z,17.50
2022-11-06T23:45:44.030Z,17.50
2022-11-06T23:48:48.486Z,17.50
2022-11-06T23:51:52.047Z,17.60
2022-11-06T23:54:57.504Z,17.60
2022-11-06T23:58:01.107Z,17.60
